Time;durP1;ratioP1;P1;durP2;ratioP2;P2;SDS_P1;SDS_P2;PMS_P1;PMS_P2;Temp;Humidity;BMP_temperature;BMP_pressure;BME280_temperature;BME280_humidity;BME280_pressure;Samples;Min_cycle;Max_cycle;Signal;HPM_P1;HPM_P2
2023/09/09 00:00:34;;;;;;;6.15;3.00;;;26.80;39.90;;;;;;5010922;28;20481;-69
2023/09/09 00:03:00;;;;;;;3.95;2.63;;;26.80;40.00;;;;;;5007299;28;20038;-69
2023/09/09 00:05:30;;;;;;;4.93;2.58;;;26.70;40.00;;;;;;5006307;28;20498;-69
2023/09/09 00:07:56;;;;;;;5.88;2.33;;;26.80;40.10;;;;;;5005119;28;20049;-69
2023/09/09 00:10:23;;;;;;;6.32;2.60;;;26.90;40.10;;;;;;4970311;28;20126;-69
2023/09/09 00:12:49;;;;;;;9.52;2.80;;;26.80;40.10;;;;;;4991691;28;20465;-69
2023/09/09 00:15:15;;;;;;;3.58;2.28;;;26.80;40.20;;;;;;5010846;28;20117;-69
2023/09/09 00:17:42;;;;;;;3.88;2.45;;;26.70;40.20;;;;;;5010467;28;20042;-69
2023/09/09 00:20:10;;;;;;;3.38;2.33;;;26.70;40.30;;;;;;5063192;28;20036;-69
2023/09/09 00:22:38;;;;;;;6.97;2.60;;;26.70;40.30;;;;;;5015782;28;20386;-69
2023/09/09 00:25:05;;;;;;;9.18;2.53;;;26.70;40.40;;;;;;4974170;28;20027;-69
2023/09/09 00:27:32;;;;;;;7.95;2.40;;;26.80;40.40;;;;;;4992009;28;20073;-69
2023/09/09 00:29:58;;;;;;;3.30;2.13;;;26.60;40.50;;;;;;5007555;28;20366;-69
2023/09/09 00:32:24;;;;;;;11.75;2.90;;;26.70;40.50;;;;;;5006393;28;20038;-69
2023/09/09 00:34:52;;;;;;;4.72;2.08;;;26.80;40.50;;;;;;5009403;28;20403;-69
2023/09/09 00:37:19;;;;;;;4.15;2.40;;;26.70;40.60;;;;;;4985800;28;20045;-69
2023/09/09 00:39:45;;;;;;;6.28;2.50;;;26.70;40.60;;;;;;4982553;28;20050;-69
2023/09/09 00:42:12;;;;;;;10.63;3.20;;;26.80;40.70;;;;;;4992311;28;20118;-69
2023/09/09 00:44:38;;;;;;;3.70;2.65;;;26.80;40.70;;;;;;4992560;28;20117;-69
2023/09/09 00:47:04;;;;;;;5.07;3.53;;;26.80;40.70;;;;;;5004789;28;20038;-69
2023/09/09 00:49:31;;;;;;;6.90;2.88;;;26.80;40.70;;;;;;5008864;28;20038;-69
2023/09/09 00:51:57;;;;;;;5.45;2.50;;;26.80;40.80;;;;;;5005358;28;20389;-69
2023/09/09 00:54:24;;;;;;;5.10;2.30;;;26.80;40.80;;;;;;4985236;28;20068;-69
2023/09/09 00:56:51;;;;;;;5.82;2.55;;;26.80;40.80;;;;;;4969766;28;20104;-69
2023/09/09 00:59:17;;;;;;;8.02;2.55;;;26.80;40.80;;;;;;5071333;28;20074;-69
2023/09/09 01:01:44;;;;;;;5.40;2.80;;;26.80;40.80;;;;;;4978146;28;20046;-69
2023/09/09 01:04:11;;;;;;;7.30;2.30;;;26.70;40.80;;;;;;5010124;28;20042;-69
2023/09/09 01:06:47;;;;;;;3.90;2.42;;;26.70;40.90;;;;;;5009051;28;20046;-69
2023/09/09 01:09:13;;;;;;;4.90;2.42;;;26.60;41.00;;;;;;4991714;28;20046;-69
2023/09/09 01:11:40;;;;;;;5.65;2.30;;;26.70;41.00;;;;;;4996596;28;20060;-69
2023/09/09 01:14:06;;;;;;;7.85;2.70;;;26.70;41.00;;;;;;5007961;28;20065;-69
2023/09/09 01:16:33;;;;;;;4.32;2.38;;;26.60;41.00;;;;;;5009766;28;20034;-69
2023/09/09 01:19:21;;;;;;;4.65;2.75;;;26.70;41.10;;;;;;5009788;28;20026;-69
2023/09/09 01:21:50;;;;;;;3.30;2.08;;;26.70;41.20;;;;;;5002968;28;20090;-69
2023/09/09 01:24:17;;;;;;;4.95;2.50;;;26.60;41.20;;;;;;4971232;28;20062;-69
2023/09/09 01:26:48;;;;;;;3.50;2.38;;;26.50;41.20;;;;;;4970612;28;20035;-69
2023/09/09 01:29:15;;;;;;;6.25;2.33;;;26.80;41.30;;;;;;4968769;28;20141;-69
2023/09/09 01:31:41;;;;;;;6.20;2.08;;;26.60;41.30;;;;;;4969792;28;20035;-69
2023/09/09 01:34:13;;;;;;;5.85;1.92;;;26.70;41.30;;;;;;5004844;28;20037;-69
2023/09/09 01:36:39;;;;;;;4.60;2.63;;;26.70;41.30;;;;;;5005549;28;20068;-69
2023/09/09 01:39:05;;;;;;;3.50;2.28;;;26.70;41.40;;;;;;5001941;28;20061;-69
2023/09/09 01:41:32;;;;;;;5.00;2.63;;;26.70;41.40;;;;;;5008395;28;20486;-69
2023/09/09 01:43:58;;;;;;;5.68;2.95;;;26.70;41.50;;;;;;5005621;28;20030;-69
2023/09/09 01:46:24;;;;;;;5.63;2.08;;;26.70;41.50;;;;;;5008331;28;20034;-69
2023/09/09 01:48:52;;;;;;;6.60;2.33;;;26.80;41.50;;;;;;5008238;28;20043;-69
2023/09/09 01:51:28;;;;;;;5.85;2.38;;;26.80;41.50;;;;;;5009500;28;20105;-69
2023/09/09 01:53:55;;;;;;;5.00;2.67;;;26.70;41.50;;;;;;4976499;28;20047;-69
2023/09/09 01:56:21;;;;;;;6.00;2.70;;;26.60;41.50;;;;;;4968787;28;20145;-69
2023/09/09 01:58:47;;;;;;;5.70;2.40;;;26.60;41.50;;;;;;5028322;28;20026;-69
2023/09/09 02:01:21;;;;;;;5.57;2.55;;;26.60;41.60;;;;;;5007997;28;20104;-69
2023/09/09 02:03:47;;;;;;;3.53;1.95;;;26.60;41.60;;;;;;4992598;28;20044;-68
2023/09/09 02:06:13;;;;;;;7.57;2.50;;;26.60;41.60;;;;;;4989383;28;20034;-69
2023/09/09 02:08:41;;;;;;;4.63;2.30;;;26.50;41.70;;;;;;4975651;28;20034;-69
2023/09/09 02:11:09;;;;;;;3.97;2.70;;;26.50;41.70;;;;;;5027850;28;20035;-69
2023/09/09 02:13:35;;;;;;;7.18;2.47;;;26.60;41.80;;;;;;5030429;28;20030;-69
2023/09/09 02:16:17;;;;;;;4.10;2.63;;;26.50;41.90;;;;;;4976452;28;20073;-69
2023/09/09 02:18:43;;;;;;;6.63;2.33;;;26.50;41.90;;;;;;4980632;28;20040;-69
2023/09/09 02:21:10;;;;;;;2.95;2.13;;;26.60;41.90;;;;;;4986913;28;20090;-69
2023/09/09 02:23:41;;;;;;;4.03;2.15;;;26.60;41.90;;;;;;4976841;28;20123;-69
2023/09/09 02:26:08;;;;;;;5.93;2.83;;;26.70;41.90;;;;;;4986991;28;20057;-73
2023/09/09 02:28:35;;;;;;;3.40;2.15;;;26.60;41.90;;;;;;4986681;28;20027;-70
2023/09/09 02:31:02;;;;;;;2.35;2.15;;;26.70;41.80;;;;;;4943790;28;20058;-69
2023/09/09 02:33:29;;;;;;;6.25;2.15;;;26.70;41.90;;;;;;4968067;28;20122;-70
2023/09/09 02:35:59;;;;;;;4.72;2.38;;;26.80;41.90;;;;;;4948492;28;20119;-70
2023/09/09 02:38:26;;;;;;;10.73;2.83;;;26.70;41.90;;;;;;5005531;28;20050;-70
2023/09/09 02:40:52;;;;;;;3.25;1.60;;;26.70;41.90;;;;;;4986483;28;20561;-70
2023/09/09 02:43:19;;;;;;;4.85;2.25;;;26.70;41.90;;;;;;4967650;28;20046;-70
2023/09/09 02:45:46;;;;;;;2.47;1.80;;;26.60;42.00;;;;;;4970163;28;20043;-70
2023/09/09 02:48:12;;;;;;;6.40;2.28;;;26.70;42.00;;;;;;5006654;28;20042;-69
2023/09/09 02:50:38;;;;;;;3.92;2.42;;;26.60;42.10;;;;;;5008242;28;20682;-70
2023/09/09 02:53:04;;;;;;;4.55;2.05;;;26.60;42.10;;;;;;4998664;28;20057;-70
2023/09/09 02:55:30;;;;;;;2.25;2.00;;;26.60;42.10;;;;;;5008028;28;20042;-70
2023/09/09 02:57:57;;;;;;;6.10;2.63;;;26.60;42.20;;;;;;5007099;28;20026;-70
2023/09/09 03:01:03;;;;;;;6.25;2.08;;;26.60;42.20;;;;;;5005376;28;20057;-69
2023/09/09 03:03:31;;;;;;;5.07;1.90;;;26.50;42.40;;;;;;4983748;28;20046;-70
2023/09/09 03:06:10;;;;;;;5.97;2.80;;;26.50;42.40;;;;;;4973140;28;20041;-70
2023/09/09 03:08:36;;;;;;;4.80;2.20;;;26.60;42.40;;;;;;4972041;28;20034;-70
2023/09/09 03:11:02;;;;;;;7.95;2.63;;;26.40;42.50;;;;;;4969835;28;20046;-70
2023/09/09 03:13:28;;;;;;;5.20;2.17;;;26.50;42.60;;;;;;4992811;28;20058;-70
2023/09/09 03:15:55;;;;;;;6.18;2.40;;;26.50;42.60;;;;;;5005618;28;20501;-70
2023/09/09 03:18:21;;;;;;;5.00;2.70;;;26.40;42.60;;;;;;4989581;28;20041;-70
2023/09/09 03:20:47;;;;;;;14.20;2.63;;;26.50;42.70;;;;;;4985789;28;20175;-70
2023/09/09 03:23:14;;;;;;;7.97;2.05;;;26.40;42.70;;;;;;4978193;28;20054;-70
2023/09/09 03:25:40;;;;;;;5.30;2.17;;;26.50;42.80;;;;;;4989226;28;20051;-69
2023/09/09 03:28:06;;;;;;;5.82;2.55;;;26.40;42.80;;;;;;4989266;28;20030;-70
2023/09/09 03:30:53;;;;;;;4.18;2.33;;;26.40;42.90;;;;;;5007844;28;20571;-70
2023/09/09 03:33:22;;;;;;;4.43;2.35;;;26.40;42.90;;;;;;5020109;28;20121;-70
2023/09/09 03:36:07;;;;;;;6.28;2.28;;;26.40;42.90;;;;;;5004543;28;20048;-70
2023/09/09 03:38:35;;;;;;;3.17;2.10;;;26.40;43.00;;;;;;4988843;28;20489;-70
2023/09/09 03:41:05;;;;;;;6.40;2.13;;;26.40;43.20;;;;;;4988842;28;20492;-70
2023/09/09 03:43:32;;;;;;;4.50;2.17;;;26.50;43.20;;;;;;4988860;28;20037;-69
2023/09/09 03:45:58;;;;;;;9.30;2.45;;;26.60;43.20;;;;;;5008519;28;20052;-70
2023/09/09 03:48:27;;;;;;;4.93;2.30;;;26.40;43.20;;;;;;5009644;28;20034;-70
2023/09/09 03:51:03;;;;;;;3.20;2.22;;;26.40;43.30;;;;;;5007410;28;20037;-69
2023/09/09 03:53:31;;;;;;;4.80;2.70;;;26.50;43.30;;;;;;4973770;28;20141;-70
2023/09/09 03:56:00;;;;;;;3.50;2.03;;;26.50;43.30;;;;;;4970180;28;20066;-70
2023/09/09 03:58:27;;;;;;;3.28;2.47;;;26.40;43.30;;;;;;4982254;28;20448;-70
2023/09/09 04:01:07;;;;;;;6.00;2.22;;;26.60;43.40;;;;;;4981041;28;20039;-70
2023/09/09 04:03:36;;;;;;;4.65;2.35;;;26.70;43.40;;;;;;4967062;28;20520;-70
2023/09/09 04:06:05;;;;;;;3.63;1.88;;;26.50;43.40;;;;;;4972234;28;20031;-70
2023/09/09 04:08:33;;;;;;;5.15;2.97;;;26.60;43.40;;;;;;4978941;28;20039;-70
2023/09/09 04:11:01;;;;;;;2.72;2.13;;;26.60;43.40;;;;;;4982116;28;20458;-70
2023/09/09 04:13:30;;;;;;;4.13;2.08;;;26.70;43.40;;;;;;4969660;28;20046;-70
2023/09/09 04:15:57;;;;;;;4.35;2.60;;;26.60;43.40;;;;;;4972313;28;20046;-70
2023/09/09 04:18:25;;;;;;;5.35;2.30;;;26.60;43.40;;;;;;4958898;28;20058;-70
2023/09/09 04:20:51;;;;;;;5.22;2.53;;;26.70;43.40;;;;;;4968968;28;20053;-70
2023/09/09 04:23:18;;;;;;;3.13;2.47;;;26.60;43.40;;;;;;4952574;28;20051;-70
2023/09/09 04:25:47;;;;;;;5.47;2.25;;;26.70;43.40;;;;;;4952906;28;20086;-70
2023/09/09 04:28:14;;;;;;;8.45;2.40;;;26.70;43.40;;;;;;4950880;28;20095;-70
2023/09/09 04:30:43;;;;;;;3.53;2.33;;;26.70;43.40;;;;;;4984650;28;20883;-70
2023/09/09 04:33:11;;;;;;;8.95;2.60;;;26.80;43.40;;;;;;4985051;28;20043;-70
2023/09/09 04:35:41;;;;;;;4.43;2.60;;;26.90;43.30;;;;;;4988564;28;20034;-70
2023/09/09 04:38:08;;;;;;;6.65;2.72;;;26.70;43.30;;;;;;4977750;28;20057;-70
2023/09/09 04:40:36;;;;;;;4.72;2.60;;;26.70;43.30;;;;;;4971895;28;20134;-70
2023/09/09 04:43:02;;;;;;;7.85;2.80;;;26.90;43.30;;;;;;4971458;28;20034;-70
2023/09/09 04:45:28;;;;;;;3.78;2.50;;;26.70;43.30;;;;;;4966963;28;20038;-70
2023/09/09 04:47:55;;;;;;;5.72;2.60;;;27.00;43.90;;;;;;4952823;28;20130;-70
2023/09/09 04:50:22;;;;;;;6.22;2.65;;;26.80;43.30;;;;;;4952237;28;20633;-70
2023/09/09 04:52:48;;;;;;;10.30;3.35;;;26.90;43.30;;;;;;4952683;28;20047;-69
2023/09/09 04:55:15;;;;;;;12.63;3.40;;;26.90;43.30;;;;;;4985870;28;20050;-70
2023/09/09 04:57:42;;;;;;;9.27;3.13;;;26.80;43.30;;;;;;4971462;28;20080;-69
2023/09/09 05:00:09;;;;;;;5.78;2.92;;;26.90;43.30;;;;;;4971801;28;20046;-71
2023/09/09 05:02:54;;;;;;;7.00;3.13;;;26.80;43.30;;;;;;4974058;28;20046;-69
2023/09/09 05:05:20;;;;;;;7.13;3.40;;;26.90;43.40;;;;;;4986159;28;20043;-70
2023/09/09 05:07:46;;;;;;;6.60;3.50;;;26.90;43.30;;;;;;4969461;28;20039;-69
2023/09/09 05:10:13;;;;;;;10.07;3.65;;;26.80;43.30;;;;;;4956982;28;20042;-70
2023/09/09 05:12:40;;;;;;;8.23;3.10;;;26.80;43.30;;;;;;4955686;28;20490;-70
2023/09/09 05:15:10;;;;;;;4.63;3.28;;;26.90;43.30;;;;;;4955738;28;20046;-70
2023/09/09 05:17:37;;;;;;;7.43;3.20;;;26.80;43.30;;;;;;4969346;28;20038;-70
2023/09/09 05:20:04;;;;;;;9.25;3.60;;;26.80;43.30;;;;;;5053505;28;20153;-70
2023/09/09 05:22:31;;;;;;;4.38;2.90;;;26.80;43.30;;;;;;4987728;28;20052;-69
2023/09/09 05:25:00;;;;;;;9.90;3.50;;;26.80;43.30;;;;;;4995678;28;20031;-70
2023/09/09 05:27:26;;;;;;;10.05;3.65;;;26.70;43.40;;;;;;5008246;28;20025;-70
2023/09/09 05:29:53;;;;;;;8.82;3.60;;;26.80;43.50;;;;;;5003807;28;20492;-69
2023/09/09 05:32:19;;;;;;;8.73;3.80;;;26.80;43.50;;;;;;5006117;28;20061;-70
2023/09/09 05:34:46;;;;;;;5.65;3.53;;;26.80;43.50;;;;;;4998750;28;20504;-70
2023/09/09 05:37:12;;;;;;;11.05;3.92;;;26.70;43.50;;;;;;4969859;28;20653;-70
2023/09/09 05:39:42;;;;;;;8.77;4.10;;;26.70;43.50;;;;;;5070404;28;20122;-70
2023/09/09 05:42:08;;;;;;;10.25;4.07;;;26.70;43.50;;;;;;4970662;28;20043;-70
2023/09/09 05:44:36;;;;;;;7.07;3.95;;;26.80;43.50;;;;;;5045311;28;20414;-70
2023/09/09 05:47:05;;;;;;;7.57;3.97;;;26.90;43.50;;;;;;5007978;28;20037;-70
2023/09/09 05:49:32;;;;;;;8.00;4.20;;;26.70;43.50;;;;;;4999873;28;20038;-71
2023/09/09 05:51:58;;;;;;;4.50;3.10;;;26.80;43.50;;;;;;4981271;28;20464;-69
2023/09/09 05:54:24;;;;;;;1.70;0.80;;;26.80;43.50;;;;;;4999426;28;20098;-68
2023/09/09 05:56:51;;;;;;;1.58;0.88;;;26.90;42.20;;;;;;5006103;28;20081;-69
2023/09/09 05:59:17;;;;;;;2.00;1.00;;;26.90;44.10;;;;;;5005919;28;20050;-71
2023/09/09 06:01:44;;;;;;;1.63;1.25;;;26.90;43.70;;;;;;4982907;28;20048;-71
2023/09/09 06:04:10;;;;;;;2.67;1.35;;;27.10;44.20;;;;;;5005827;28;20073;-71
2023/09/09 06:06:36;;;;;;;4.93;2.65;;;27.00;45.30;;;;;;4983501;28;20117;-71
2023/09/09 06:09:03;;;;;;;1.73;1.55;;;27.10;43.80;;;;;;4998165;28;20053;-69
2023/09/09 06:11:33;;;;;;;2.30;1.77;;;27.20;48.30;;;;;;4980902;28;20044;-68
2023/09/09 06:13:59;;;;;;;6.85;2.67;;;27.20;48.70;;;;;;4971290;28;20054;-68
2023/09/09 06:16:25;;;;;;;9.00;5.97;;;27.20;45.70;;;;;;5023559;28;20038;-68
2023/09/09 06:18:51;;;;;;;9.63;6.32;;;27.10;46.00;;;;;;4994335;28;20122;-68
2023/09/09 06:21:18;;;;;;;3.72;2.65;;;27.10;44.50;;;;;;4965405;28;20091;-69
2023/09/09 06:23:54;;;;;;;5.47;3.60;;;27.30;43.40;;;;;;4970949;28;20751;-68
2023/09/09 06:26:21;;;;;;;8.02;3.40;;;27.20;42.60;;;;;;5009880;28;20054;-68
2023/09/09 06:28:47;;;;;;;6.28;3.42;;;27.10;41.50;;;;;;5035188;28;20060;-70
2023/09/09 06:31:13;;;;;;;5.13;3.40;;;27.20;43.70;;;;;;4983037;28;20049;-69
2023/09/09 06:33:40;;;;;;;5.28;3.10;;;27.00;41.30;;;;;;4984926;28;20072;-68
2023/09/09 06:36:06;;;;;;;5.53;3.03;;;27.00;41.00;;;;;;4996739;28;20056;-67
2023/09/09 06:38:32;;;;;;;4.78;3.15;;;27.10;40.50;;;;;;4988171;28;20113;-69
2023/09/09 06:40:58;;;;;;;4.47;3.45;;;27.10;41.50;;;;;;4971634;28;20058;-69
2023/09/09 06:43:25;;;;;;;5.07;3.53;;;27.10;41.30;;;;;;4971837;28;20127;-69
2023/09/09 06:45:51;;;;;;;5.65;3.30;;;27.00;41.00;;;;;;4984033;28;20026;-69
2023/09/09 06:48:28;;;;;;;7.13;3.97;;;27.10;41.00;;;;;;4971182;28;20039;-69
2023/09/09 06:50:55;;;;;;;7.82;3.97;;;27.20;40.80;;;;;;4975226;28;20034;-68
2023/09/09 06:53:30;;;;;;;7.75;5.00;;;27.00;40.60;;;;;;4988024;28;20045;-67
2023/09/09 06:55:56;;;;;;;9.25;3.58;;;27.10;40.50;;;;;;4988644;28;20062;-68
2023/09/09 06:58:40;;;;;;;10.00;4.40;;;27.10;40.50;;;;;;4988124;28;20046;-69
2023/09/09 07:01:27;;;;;;;5.13;3.97;;;27.00;40.40;;;;;;4982165;28;20051;-69
2023/09/09 07:03:53;;;;;;;6.38;4.45;;;27.10;40.30;;;;;;4986352;28;20074;-69
2023/09/09 07:06:20;;;;;;;9.75;3.65;;;27.10;40.20;;;;;;5029275;28;20039;-70
2023/09/09 07:08:47;;;;;;;5.95;4.10;;;27.00;40.10;;;;;;4969087;28;20039;-70
2023/09/09 07:11:14;;;;;;;9.45;4.50;;;27.20;40.30;;;;;;4969134;28;20113;-69
2023/09/09 07:13:40;;;;;;;7.50;4.13;;;27.20;40.30;;;;;;4969571;28;20039;-70
2023/09/09 07:16:06;;;;;;;4.32;3.53;;;27.10;40.40;;;;;;4969415;28;20487;-71
2023/09/09 07:18:32;;;;;;;6.70;3.70;;;27.20;40.50;;;;;;5037943;28;20043;-67
2023/09/09 07:20:59;;;;;;;5.78;3.60;;;27.10;40.60;;;;;;5093499;28;20136;-66
2023/09/09 07:23:25;;;;;;;4.80;3.60;;;27.10;40.60;;;;;;5073898;28;20031;-67
2023/09/09 07:26:18;;;;;;;5.65;3.45;;;27.00;40.60;;;;;;4996174;28;20058;-68
2023/09/09 07:28:45;;;;;;;4.50;3.35;;;27.10;40.40;;;;;;5011456;28;20124;-67
2023/09/09 07:31:12;;;;;;;6.05;3.85;;;27.10;40.50;;;;;;5011484;28;20068;-67
2023/09/09 07:33:39;;;;;;;7.57;4.53;;;27.00;40.50;;;;;;5011516;28;20058;-68
2023/09/09 07:36:05;;;;;;;6.82;3.92;;;27.00;40.70;;;;;;5011607;28;20037;-68
2023/09/09 07:38:31;;;;;;;8.20;4.00;;;27.00;40.80;;;;;;5010118;28;20485;-68
2023/09/09 07:40:58;;;;;;;5.72;3.92;;;26.90;40.30;;;;;;5002551;28;20057;-68
2023/09/09 07:43:25;;;;;;;4.57;3.45;;;26.90;40.30;;;;;;4991575;28;20121;-68
2023/09/09 07:45:51;;;;;;;5.85;3.95;;;26.90;40.20;;;;;;4990286;28;20037;-69
2023/09/09 07:48:26;;;;;;;6.15;4.03;;;27.00;40.70;;;;;;4991684;28;20079;-70
2023/09/09 07:50:53;;;;;;;5.93;4.05;;;27.00;40.60;;;;;;4991516;28;20034;-69
2023/09/09 07:53:23;;;;;;;4.72;3.60;;;27.00;40.60;;;;;;4991581;28;20062;-70
2023/09/09 07:55:51;;;;;;;7.85;4.20;;;27.00;40.60;;;;;;4991437;28;20077;-72
2023/09/09 07:58:17;;;;;;;7.50;3.97;;;27.00;40.70;;;;;;4990678;28;20109;-71
2023/09/09 08:00:44;;;;;;;6.20;3.88;;;27.00;40.70;;;;;;4991454;28;20057;-70
2023/09/09 08:03:11;;;;;;;5.18;3.83;;;26.90;40.20;;;;;;4991495;28;20038;-71
2023/09/09 08:05:38;;;;;;;5.20;3.83;;;27.00;41.10;;;;;;4991229;28;20750;-72
2023/09/09 08:08:08;;;;;;;6.90;3.85;;;27.10;41.20;;;;;;4991347;28;20098;-70
2023/09/09 08:10:34;;;;;;;5.82;3.45;;;27.10;41.20;;;;;;4991407;28;20135;-71
2023/09/09 08:13:03;;;;;;;6.60;4.25;;;27.20;41.30;;;;;;4994630;28;20117;-72
2023/09/09 08:15:29;;;;;;;6.00;3.97;;;27.00;41.40;;;;;;5011912;28;20368;-71
2023/09/09 08:17:56;;;;;;;4.32;3.40;;;27.00;41.50;;;;;;5093787;28;20027;-72
2023/09/09 08:20:22;;;;;;;4.90;3.45;;;27.10;41.60;;;;;;5092375;28;20488;-72
2023/09/09 08:22:49;;;;;;;5.70;3.45;;;27.00;41.60;;;;;;5093773;28;20473;-72
2023/09/09 08:25:15;;;;;;;6.78;3.83;;;27.00;41.70;;;;;;5093477;28;20483;-72
2023/09/09 08:27:42;;;;;;;7.88;4.38;;;27.10;41.80;;;;;;5093567;28;20114;-72
2023/09/09 08:30:08;;;;;;;5.25;3.08;;;27.00;41.80;;;;;;5093851;28;20571;-72
2023/09/09 08:32:34;;;;;;;5.22;3.80;;;27.00;41.80;;;;;;5013252;28;20043;-72
2023/09/09 08:35:22;;;;;;;6.20;3.95;;;26.90;41.30;;;;;;4956944;28;20035;-72
2023/09/09 08:37:49;;;;;;;8.38;3.60;;;27.00;41.90;;;;;;4970275;28;20549;-72
2023/09/09 08:40:15;;;;;;;5.53;3.45;;;27.00;41.90;;;;;;4971595;28;20039;-72
2023/09/09 08:43:06;;;;;;;5.65;2.60;;;27.00;41.90;;;;;;4971403;28;20133;-72
2023/09/09 08:46:07;;;;;;;4.13;3.08;;;26.90;41.30;;;;;;4971471;28;20030;-72
2023/09/09 08:48:48;;;;;;;4.70;3.80;;;27.00;42.00;;;;;;5034116;28;20037;-72
2023/09/09 08:51:27;;;;;;;;;;;;;;;;;;;;;
2023/09/09 08:53:57;;;;;;;4.97;3.63;;;26.80;41.50;;;;;;4978810;28;20045;-72
2023/09/09 08:56:24;;;;;;;5.00;3.47;;;26.90;41.60;;;;;;5010283;28;20042;-72
2023/09/09 08:58:50;;;;;;;5.88;3.78;;;26.80;41.80;;;;;;5010584;28;20104;-71
2023/09/09 09:01:17;;;;;;;7.53;3.42;;;26.90;41.80;;;;;;5010590;28;20034;-72
2023/09/09 09:03:48;;;;;;;9.88;4.00;;;27.00;42.40;;;;;;5010556;28;20294;-72
2023/09/09 09:06:15;;;;;;;5.55;2.75;;;26.90;41.90;;;;;;5009517;28;20052;-71
2023/09/09 09:08:42;;;;;;;4.35;3.03;;;26.90;41.90;;;;;;5010551;28;20055;-72
2023/09/09 09:11:11;;;;;;;4.43;3.33;;;26.80;42.00;;;;;;5010410;28;20038;-71
2023/09/09 09:13:50;;;;;;;;;;;;;;;;;;;;;
2023/09/09 09:16:21;;;;;;;4.30;2.83;;;26.90;42.10;;;;;;5010262;28;20296;-72
2023/09/09 09:18:47;;;;;;;4.20;2.75;;;26.70;42.20;;;;;;5010357;28;20042;-72
2023/09/09 09:21:14;;;;;;;6.65;3.25;;;26.80;42.20;;;;;;5010282;28;20064;-72
2023/09/09 09:23:44;;;;;;;5.15;3.42;;;26.80;42.20;;;;;;5009224;28;20084;-71
2023/09/09 09:26:37;;;;;;;5.68;3.40;;;26.90;42.30;;;;;;4959267;28;20085;-71
2023/09/09 09:29:07;;;;;;;4.17;2.90;;;26.90;42.30;;;;;;4967528;28;20051;-71
2023/09/09 09:31:49;;;;;;;4.43;3.22;;;27.00;42.90;;;;;;4961183;28;20692;-72
2023/09/09 09:34:52;;;;;;;8.45;3.20;;;27.00;42.90;;;;;;5002156;28;20100;-72
2023/09/09 09:37:19;;;;;;;4.63;3.00;;;26.90;42.40;;;;;;4970740;28;20035;-71
2023/09/09 09:39:45;;;;;;;2.92;2.40;;;26.80;42.40;;;;;;4971567;28;20477;-72
2023/09/09 09:42:13;;;;;;;3.08;1.95;;;27.00;43.00;;;;;;4982577;28;20109;-73
2023/09/09 09:44:40;;;;;;;3.58;3.20;;;26.80;42.20;;;;;;4985765;28;20143;-78
2023/09/09 09:47:08;;;;;;;2.85;2.55;;;26.80;42.50;;;;;;4979609;28;20604;-76
2023/09/09 09:49:44;;;;;;;4.50;3.35;;;26.80;43.50;;;;;;4978322;28;20025;-72
2023/09/09 09:52:29;;;;;;;8.68;3.17;;;26.80;43.90;;;;;;4999491;28;20057;-74
2023/09/09 09:55:02;;;;;;;8.43;2.75;;;26.70;43.90;;;;;;5002584;28;20527;-73
2023/09/09 09:57:29;;;;;;;4.68;2.85;;;26.80;43.70;;;;;;4977498;28;20059;-76
2023/09/09 09:59:56;;;;;;;4.80;3.10;;;26.80;43.70;;;;;;4978250;28;20465;-74
2023/09/09 10:02:48;;;;;;;4.63;2.83;;;26.70;43.30;;;;;;4985128;28;20035;-71
2023/09/09 10:05:17;;;;;;;5.05;2.35;;;26.80;43.30;;;;;;4989733;28;20049;-71
2023/09/09 10:07:46;;;;;;;5.88;2.47;;;26.80;43.10;;;;;;4992671;28;20034;-70
2023/09/09 10:10:35;;;;;;;3.92;2.30;;;26.90;43.40;;;;;;4986272;28;20022;-77
2023/09/09 10:13:13;;;;;;;3.20;2.30;;;26.70;43.40;;;;;;4990089;28;20478;-71
2023/09/09 10:15:40;;;;;;;2.83;1.77;;;26.70;43.30;;;;;;4999075;28;20093;-71
2023/09/09 10:18:19;;;;;;;4.25;2.88;;;26.90;45.20;;;;;;5006335;28;20060;-73
2023/09/09 10:21:20;;;;;;;3.65;2.50;;;26.90;44.90;;;;;;4990132;28;20045;-75
2023/09/09 10:23:49;;;;;;;6.53;2.50;;;27.00;45.30;;;;;;5103010;28;20039;-77
2023/09/09 10:26:17;;;;;;;5.82;2.25;;;27.00;46.40;;;;;;5075242;28;20044;-72
2023/09/09 10:28:44;;;;;;;4.97;3.40;;;27.00;48.60;;;;;;5099148;28;20480;-74
2023/09/09 10:31:12;;;;;;;6.80;2.90;;;27.00;50.00;;;;;;5084471;28;20414;-69
2023/09/09 10:33:46;;;;;;;2.85;2.28;;;27.00;51.00;;;;;;5084909;28;20501;-70
2023/09/09 10:36:14;;;;;;;4.38;2.63;;;27.30;51.70;;;;;;5094755;28;20031;-74
2023/09/09 10:38:40;;;;;;;4.45;2.53;;;27.20;50.50;;;;;;5077331;28;20054;-75
2023/09/09 10:41:08;;;;;;;3.55;2.47;;;27.20;48.90;;;;;;5076853;28;20060;-75
2023/09/09 10:43:34;;;;;;;7.30;2.58;;;27.30;48.90;;;;;;5082636;28;20077;-75
2023/09/09 10:46:03;;;;;;;12.45;3.22;;;27.40;49.80;;;;;;5071888;28;20028;-74
2023/09/09 10:48:30;;;;;;;4.22;2.10;;;27.60;48.10;;;;;;5082568;28;20154;-74
2023/09/09 10:51:06;;;;;;;7.57;2.67;;;27.70;46.80;;;;;;5086889;28;20078;-74
2023/09/09 10:53:33;;;;;;;4.45;2.40;;;27.80;46.70;;;;;;5092478;28;20103;-77
2023/09/09 10:56:15;;;;;;;5.55;1.95;;;27.90;47.40;;;;;;4990362;28;20055;-74
2023/09/09 10:58:44;;;;;;;6.72;2.30;;;27.90;47.70;;;;;;5001651;28;20046;-73
2023/09/09 11:01:42;;;;;;;5.35;1.90;;;28.00;48.40;;;;;;4996185;28;20034;-72
2023/09/09 11:04:19;;;;;;;4.57;2.15;;;28.00;48.00;;;;;;5002067;28;20065;-73
2023/09/09 11:07:07;;;;;;;2.83;1.55;;;28.10;47.30;;;;;;4994677;28;20026;-74
2023/09/09 11:09:34;;;;;;;3.25;2.00;;;28.30;46.50;;;;;;4998775;28;20030;-73
2023/09/09 11:12:14;;;;;;;4.55;3.05;;;28.50;45.80;;;;;;5009135;28;20022;-73
2023/09/09 11:14:59;;;;;;;1.85;1.45;;;28.40;44.90;;;;;;4992071;28;20027;-72
2023/09/09 11:17:28;;;;;;;6.80;2.10;;;28.60;42.90;;;;;;4973953;28;20054;-71
2023/09/09 11:19:55;;;;;;;5.18;2.80;;;28.70;42.60;;;;;;4998491;28;20382;-72
2023/09/09 11:22:22;;;;;;;3.58;2.00;;;28.50;41.30;;;;;;4979047;28;20491;-72
2023/09/09 11:24:49;;;;;;;6.60;2.20;;;28.50;41.30;;;;;;4970981;28;20053;-72
2023/09/09 11:27:19;;;;;;;2.13;1.83;;;28.60;41.20;;;;;;4990940;28;20030;-71
2023/09/09 11:29:52;;;;;;;2.35;1.90;;;28.50;40.80;;;;;;4991006;28;20034;-72
2023/09/09 11:32:29;;;;;;;3.90;1.33;;;28.50;40.70;;;;;;4991232;28;20036;-71
2023/09/09 11:34:57;;;;;;;5.85;1.85;;;28.60;40.60;;;;;;4994178;28;20157;-71
2023/09/09 11:37:24;;;;;;;3.75;2.08;;;28.60;40.60;;;;;;4988663;28;20050;-71
2023/09/09 11:39:54;;;;;;;1.55;1.05;;;28.50;40.80;;;;;;4984469;28;20037;-70
2023/09/09 11:42:21;;;;;;;2.13;1.85;;;28.50;40.90;;;;;;5002920;28;20041;-70
2023/09/09 11:44:51;;;;;;;2.85;1.90;;;28.50;40.80;;;;;;4992421;28;20053;-69
2023/09/09 11:47:21;;;;;;;4.45;1.85;;;28.50;40.70;;;;;;4999772;28;20238;-70
2023/09/09 11:49:53;;;;;;;1.83;1.48;;;28.40;40.90;;;;;;4993550;28;20132;-72
2023/09/09 11:52:23;;;;;;;;;;;28.50;40.90;;;;;;4993757;28;20056;-71
2023/09/09 11:54:49;;;;;;;3.38;2.20;;;28.40;40.80;;;;;;4991188;28;19910;-71
2023/09/09 11:57:15;;;;;;;1.92;1.33;;;28.50;40.80;;;;;;4997408;28;20046;-72
2023/09/09 11:59:49;;;;;;;6.68;1.67;;;28.50;40.70;;;;;;4983327;28;20468;-72
2023/09/09 12:02:23;;;;;;;2.17;1.48;;;28.40;40.70;;;;;;4990257;28;20043;-73
2023/09/09 12:05:01;;;;;;;1.70;1.55;;;28.40;40.80;;;;;;4974647;28;20030;-69
2023/09/09 12:07:36;;;;;;;2.10;1.42;;;28.50;41.00;;;;;;4975509;28;20023;-69
2023/09/09 12:10:07;;;;;;;1.95;1.63;;;28.40;41.10;;;;;;5001955;28;20119;-72
2023/09/09 12:12:34;;;;;;;2.13;1.63;;;28.40;41.30;;;;;;4984612;28;20038;-70
2023/09/09 12:15:02;;;;;;;2.30;1.42;;;28.30;41.50;;;;;;4989508;28;20038;-71
2023/09/09 12:17:28;;;;;;;1.88;1.33;;;28.20;41.60;;;;;;5049122;28;20136;-68
2023/09/09 12:19:56;;;;;;;1.52;1.13;;;28.20;41.70;;;;;;5052758;28;20052;-69
2023/09/09 12:22:35;;;;;;;1.73;1.20;;;28.40;41.80;;;;;;5053191;28;20052;-69
2023/09/09 12:25:04;;;;;;;1.52;1.10;;;28.40;41.90;;;;;;5051762;28;20033;-76
2023/09/09 12:27:44;;;;;;;1.77;1.30;;;28.30;42.00;;;;;;5054252;28;20410;-71
2023/09/09 12:30:32;;;;;;;2.22;2.00;;;28.30;42.10;;;;;;5062813;28;20620;-68
2023/09/09 12:33:11;;;;;;;3.40;1.52;;;28.20;42.20;;;;;;5053051;28;20139;-66
2023/09/09 12:35:49;;;;;;;2.00;1.10;;;28.30;42.20;;;;;;5056520;28;20029;-69
2023/09/09 12:38:16;;;;;;;1.52;0.93;;;28.30;42.30;;;;;;5046411;28;20045;-70
2023/09/09 12:40:48;;;;;;;2.00;0.98;;;28.30;42.40;;;;;;5048320;28;20052;-68
2023/09/09 12:43:35;;;;;;;1.25;0.80;;;28.10;42.60;;;;;;5075410;27;20083;-70
2023/09/09 12:46:11;;;;;;;4.28;1.00;;;28.10;42.70;;;;;;5057676;28;20071;-70
2023/09/09 12:48:51;;;;;;;4.20;1.35;;;28.10;42.80;;;;;;5047118;28;20071;-71
2023/09/09 12:51:18;;;;;;;3.30;1.55;;;28.10;42.80;;;;;;5055742;28;20036;-72
2023/09/09 12:53:44;;;;;;;1.48;1.00;;;28.10;42.90;;;;;;5048805;28;20039;-73
2023/09/09 12:56:10;;;;;;;0.85;0.70;;;28.20;43.00;;;;;;4987503;28;20373;-73
2023/09/09 12:58:37;;;;;;;6.80;0.77;;;28.10;43.10;;;;;;4978969;28;20026;-71
2023/09/09 13:01:09;;;;;;;3.95;1.58;;;28.00;43.20;;;;;;4987005;28;20401;-72